Silver, Texas
Current Conditions -  °F | °C
As of 12:35 AM on Friday 31 Oct 2014 (Local Time) from KSWW Reporting Station
Clear Clear  
Wind Chill: 61°   Ceiling: Unl
Heat Index: 61°   Visibility: 10mi
Dew Point: 41°   Wind: 8mph
Humidity: 47%   Direction: 20°NNE
Pressure: 30.3"   Gusts: NA
Location:  32.07°N, 100.68°W
Report Text: KSWW 310535Z AUTO 02007KT 10SM CLR 16/05 A3030 RMK AO2 T01630049
Loading
Personal Weather Stations






























Interactive Weather Map
Tropical Storm Tracking
New forecast layout! Learn more

10-Day Weather Forecast

Advertisements
Track Severe Weather on mobile